sensor_id;sensor_type;location;lat;lon;timestamp;temperature;humidity
55213;DHT22;41083;52.932;6.674;2023-07-29T00:01:08;18.60;99.90
55213;DHT22;41083;52.932;6.674;2023-07-29T00:03:34;18.60;99.90
55213;DHT22;41083;52.932;6.674;2023-07-29T00:06:00;18.60;99.90
55213;DHT22;41083;52.932;6.674;2023-07-29T00:08:25;18.60;99.90
55213;DHT22;41083;52.932;6.674;2023-07-29T00:10:51;18.60;99.90
55213;DHT22;41083;52.932;6.674;2023-07-29T00:13:16;18.60;99.90
55213;DHT22;41083;52.932;6.674;2023-07-29T00:15:42;18.50;99.90
55213;DHT22;41083;52.932;6.674;2023-07-29T00:18:08;18.50;99.90
55213;DHT22;41083;52.932;6.674;2023-07-29T00:20:33;18.50;99.90
55213;DHT22;41083;52.932;6.674;2023-07-29T00:22:59;18.50;99.90
55213;DHT22;41083;52.932;6.674;2023-07-29T00:25:25;18.50;99.90
55213;DHT22;41083;52.932;6.674;2023-07-29T00:27:50;18.40;99.90
55213;DHT22;41083;52.932;6.674;2023-07-29T00:30:16;18.40;99.90
55213;DHT22;41083;52.932;6.674;2023-07-29T00:32:42;18.40;99.90
55213;DHT22;41083;52.932;6.674;2023-07-29T00:35:08;18.40;99.90
55213;DHT22;41083;52.932;6.674;2023-07-29T00:37:33;18.40;99.90
55213;DHT22;41083;52.932;6.674;2023-07-29T00:39:59;18.30;99.90
55213;DHT22;41083;52.932;6.674;2023-07-29T00:42:25;18.30;99.90
55213;DHT22;41083;52.932;6.674;2023-07-29T00:44:50;18.30;99.90
55213;DHT22;41083;52.932;6.674;2023-07-29T00:47:16;18.30;99.90
55213;DHT22;41083;52.932;6.674;2023-07-29T00:49:45;18.30;99.90
55213;DHT22;41083;52.932;6.674;2023-07-29T00:52:11;18.30;99.90
55213;DHT22;41083;52.932;6.674;2023-07-29T00:54:39;18.30;99.90
55213;DHT22;41083;52.932;6.674;2023-07-29T00:57:06;18.30;99.90
55213;DHT22;41083;52.932;6.674;2023-07-29T00:59:34;18.30;99.90
55213;DHT22;41083;52.932;6.674;2023-07-29T01:02:00;18.20;99.90
55213;DHT22;41083;52.932;6.674;2023-07-29T01:04:26;18.20;99.90
55213;DHT22;41083;52.932;6.674;2023-07-29T01:07:20;18.20;99.90
55213;DHT22;41083;52.932;6.674;2023-07-29T01:10:03;18.20;99.90
55213;DHT22;41083;52.932;6.674;2023-07-29T01:12:42;18.20;99.90
55213;DHT22;41083;52.932;6.674;2023-07-29T01:18:07;18.10;99.90
55213;DHT22;41083;52.932;6.674;2023-07-29T01:20:37;18.10;99.90
55213;DHT22;41083;52.932;6.674;2023-07-29T01:23:04;18.10;99.90
55213;DHT22;41083;52.932;6.674;2023-07-29T01:25:30;18.10;99.90
55213;DHT22;41083;52.932;6.674;2023-07-29T01:27:55;18.00;99.90
55213;DHT22;41083;52.932;6.674;2023-07-29T01:30:25;18.00;99.90
55213;DHT22;41083;52.932;6.674;2023-07-29T01:33:10;18.00;99.90
55213;DHT22;41083;52.932;6.674;2023-07-29T01:35:50;17.90;99.90
55213;DHT22;41083;52.932;6.674;2023-07-29T01:38:28;17.90;99.90
55213;DHT22;41083;52.932;6.674;2023-07-29T01:40:57;17.90;99.90
55213;DHT22;41083;52.932;6.674;2023-07-29T01:43:23;17.90;99.90
55213;DHT22;41083;52.932;6.674;2023-07-29T01:45:51;17.80;99.90
55213;DHT22;41083;52.932;6.674;2023-07-29T01:48:17;17.80;99.90
55213;DHT22;41083;52.932;6.674;2023-07-29T01:50:43;17.80;99.90
55213;DHT22;41083;52.932;6.674;2023-07-29T01:53:08;17.70;99.90
55213;DHT22;41083;52.932;6.674;2023-07-29T01:55:34;17.70;99.90
55213;DHT22;41083;52.932;6.674;2023-07-29T01:57:59;17.70;99.90
55213;DHT22;41083;52.932;6.674;2023-07-29T02:00:25;17.60;99.90
55213;DHT22;41083;52.932;6.674;2023-07-29T02:02:50;17.60;99.90
55213;DHT22;41083;52.932;6.674;2023-07-29T02:05:16;17.60;99.90
55213;DHT22;41083;52.932;6.674;2023-07-29T02:07:42;17.60;99.90
55213;DHT22;41083;52.932;6.674;2023-07-29T02:10:08;17.60;99.90
55213;DHT22;41083;52.932;6.674;2023-07-29T02:12:33;17.50;99.90
55213;DHT22;41083;52.932;6.674;2023-07-29T02:14:59;17.50;99.90
55213;DHT22;41083;52.932;6.674;2023-07-29T02:17:25;17.50;99.90
55213;DHT22;41083;52.932;6.674;2023-07-29T02:19:51;17.50;99.90
55213;DHT22;41083;52.932;6.674;2023-07-29T02:22:17;17.50;99.90
55213;DHT22;41083;52.932;6.674;2023-07-29T02:24:44;17.50;99.90
55213;DHT22;41083;52.932;6.674;2023-07-29T02:27:10;17.50;99.90
55213;DHT22;41083;52.932;6.674;2023-07-29T02:29:36;17.50;99.90
55213;DHT22;41083;52.932;6.674;2023-07-29T02:32:02;17.50;99.90
55213;DHT22;41083;52.932;6.674;2023-07-29T02:34:28;17.50;99.90
55213;DHT22;41083;52.932;6.674;2023-07-29T02:36:54;17.50;99.90
55213;DHT22;41083;52.932;6.674;2023-07-29T02:39:19;17.50;99.90
55213;DHT22;41083;52.932;6.674;2023-07-29T02:41:45;17.50;99.90
55213;DHT22;41083;52.932;6.674;2023-07-29T02:44:11;17.50;99.90
55213;DHT22;41083;52.932;6.674;2023-07-29T02:46:36;17.50;99.90
55213;DHT22;41083;52.932;6.674;2023-07-29T02:49:03;17.50;99.90
55213;DHT22;41083;52.932;6.674;2023-07-29T02:51:29;17.50;99.90
55213;DHT22;41083;52.932;6.674;2023-07-29T02:53:55;17.50;99.90
55213;DHT22;41083;52.932;6.674;2023-07-29T02:56:21;17.50;99.90
55213;DHT22;41083;52.932;6.674;2023-07-29T02:58:46;17.50;99.90
55213;DHT22;41083;52.932;6.674;2023-07-29T03:01:12;17.50;99.90
55213;DHT22;41083;52.932;6.674;2023-07-29T03:03:37;17.50;99.90
55213;DHT22;41083;52.932;6.674;2023-07-29T03:06:08;17.50;99.90
55213;DHT22;41083;52.932;6.674;2023-07-29T03:08:34;17.50;99.90
55213;DHT22;41083;52.932;6.674;2023-07-29T03:11:14;17.50;99.90
55213;DHT22;41083;52.932;6.674;2023-07-29T03:13:41;17.50;99.90
55213;DHT22;41083;52.932;6.674;2023-07-29T03:16:11;17.50;99.90
55213;DHT22;41083;52.932;6.674;2023-07-29T03:18:38;17.50;99.90
55213;DHT22;41083;52.932;6.674;2023-07-29T03:21:04;17.50;99.90
55213;DHT22;41083;52.932;6.674;2023-07-29T03:23:30;17.40;99.90
55213;DHT22;41083;52.932;6.674;2023-07-29T03:25:56;17.40;99.90
55213;DHT22;41083;52.932;6.674;2023-07-29T03:28:28;17.40;99.90
55213;DHT22;41083;52.932;6.674;2023-07-29T03:30:57;17.40;99.90
55213;DHT22;41083;52.932;6.674;2023-07-29T03:33:25;17.40;99.90
55213;DHT22;41083;52.932;6.674;2023-07-29T03:35:51;17.30;99.90
55213;DHT22;41083;52.932;6.674;2023-07-29T03:38:16;17.40;99.90
55213;DHT22;41083;52.932;6.674;2023-07-29T03:40:42;17.30;99.90
55213;DHT22;41083;52.932;6.674;2023-07-29T03:43:08;17.30;99.90
55213;DHT22;41083;52.932;6.674;2023-07-29T03:45:35;17.30;99.90
55213;DHT22;41083;52.932;6.674;2023-07-29T03:48:01;17.30;99.90
55213;DHT22;41083;52.932;6.674;2023-07-29T03:50:27;17.30;99.90
55213;DHT22;41083;52.932;6.674;2023-07-29T03:52:53;17.20;99.90
55213;DHT22;41083;52.932;6.674;2023-07-29T03:55:19;17.20;99.90
55213;DHT22;41083;52.932;6.674;2023-07-29T03:57:46;17.20;99.90
55213;DHT22;41083;52.932;6.674;2023-07-29T04:00:11;17.20;99.90
55213;DHT22;41083;52.932;6.674;2023-07-29T04:02:37;17.20;99.90
55213;DHT22;41083;52.932;6.674;2023-07-29T04:05:03;17.20;99.90
55213;DHT22;41083;52.932;6.674;2023-07-29T04:07:30;17.20;99.90
55213;DHT22;41083;52.932;6.674;2023-07-29T04:09:55;17.20;99.90
55213;DHT22;41083;52.932;6.674;2023-07-29T04:12:22;17.20;99.90
55213;DHT22;41083;52.932;6.674;2023-07-29T04:14:48;17.20;99.90
55213;DHT22;41083;52.932;6.674;2023-07-29T04:17:14;17.20;99.90
55213;DHT22;41083;52.932;6.674;2023-07-29T04:19:42;17.20;99.90
55213;DHT22;41083;52.932;6.674;2023-07-29T04:22:07;17.20;99.90
55213;DHT22;41083;52.932;6.674;2023-07-29T04:24:33;17.20;99.90
55213;DHT22;41083;52.932;6.674;2023-07-29T04:26:58;17.20;99.90
55213;DHT22;41083;52.932;6.674;2023-07-29T04:29:24;17.20;99.90
55213;DHT22;41083;52.932;6.674;2023-07-29T04:31:50;17.20;99.90
55213;DHT22;41083;52.932;6.674;2023-07-29T04:34:16;17.20;99.90
55213;DHT22;41083;52.932;6.674;2023-07-29T04:36:42;17.20;99.90
55213;DHT22;41083;52.932;6.674;2023-07-29T04:39:07;17.10;99.90
55213;DHT22;41083;52.932;6.674;2023-07-29T04:41:33;17.20;99.90
55213;DHT22;41083;52.932;6.674;2023-07-29T04:43:58;17.20;99.90
55213;DHT22;41083;52.932;6.674;2023-07-29T04:46:24;17.20;99.90
55213;DHT22;41083;52.932;6.674;2023-07-29T04:48:50;17.20;99.90
55213;DHT22;41083;52.932;6.674;2023-07-29T04:51:15;17.20;99.90
55213;DHT22;41083;52.932;6.674;2023-07-29T04:53:41;17.20;99.90
55213;DHT22;41083;52.932;6.674;2023-07-29T04:56:06;17.20;99.90
55213;DHT22;41083;52.932;6.674;2023-07-29T04:58:32;17.20;99.90
55213;DHT22;41083;52.932;6.674;2023-07-29T05:01:01;17.20;99.90
55213;DHT22;41083;52.932;6.674;2023-07-29T05:03:27;17.20;99.90
55213;DHT22;41083;52.932;6.674;2023-07-29T05:05:55;17.20;99.90
55213;DHT22;41083;52.932;6.674;2023-07-29T05:08:22;17.20;99.90
55213;DHT22;41083;52.932;6.674;2023-07-29T05:10:51;17.20;99.90
55213;DHT22;41083;52.932;6.674;2023-07-29T05:13:18;17.20;99.90
55213;DHT22;41083;52.932;6.674;2023-07-29T05:15:44;17.20;99.90
55213;DHT22;41083;52.932;6.674;2023-07-29T05:18:10;17.20;99.90
55213;DHT22;41083;52.932;6.674;2023-07-29T05:20:36;17.20;99.90
55213;DHT22;41083;52.932;6.674;2023-07-29T05:23:02;17.20;99.90
55213;DHT22;41083;52.932;6.674;2023-07-29T05:25:27;17.20;99.90
55213;DHT22;41083;52.932;6.674;2023-07-29T05:27:53;17.20;99.90
55213;DHT22;41083;52.932;6.674;2023-07-29T05:30:18;17.20;99.90
55213;DHT22;41083;52.932;6.674;2023-07-29T05:32:44;17.20;99.90
55213;DHT22;41083;52.932;6.674;2023-07-29T05:35:10;17.20;99.90
55213;DHT22;41083;52.932;6.674;2023-07-29T05:37:38;17.20;99.90
55213;DHT22;41083;52.932;6.674;2023-07-29T05:40:05;17.20;99.90
55213;DHT22;41083;52.932;6.674;2023-07-29T05:42:32;17.30;99.90
55213;DHT22;41083;52.932;6.674;2023-07-29T05:44:58;17.30;99.90
55213;DHT22;41083;52.932;6.674;2023-07-29T05:47:23;17.30;99.90
55213;DHT22;41083;52.932;6.674;2023-07-29T05:49:49;17.30;99.90
55213;DHT22;41083;52.932;6.674;2023-07-29T05:52:15;17.30;99.90
55213;DHT22;41083;52.932;6.674;2023-07-29T05:54:40;17.30;99.90
55213;DHT22;41083;52.932;6.674;2023-07-29T05:57:09;17.30;99.90
55213;DHT22;41083;52.932;6.674;2023-07-29T05:59:34;17.30;99.90
55213;DHT22;41083;52.932;6.674;2023-07-29T06:02:00;17.30;99.90
55213;DHT22;41083;52.932;6.674;2023-07-29T06:04:25;17.30;99.90
55213;DHT22;41083;52.932;6.674;2023-07-29T06:06:51;17.40;99.90
55213;DHT22;41083;52.932;6.674;2023-07-29T06:09:16;17.30;99.90
55213;DHT22;41083;52.932;6.674;2023-07-29T06:11:42;17.30;99.90
55213;DHT22;41083;52.932;6.674;2023-07-29T06:14:07;17.40;99.90
55213;DHT22;41083;52.932;6.674;2023-07-29T06:16:33;17.40;99.90
55213;DHT22;41083;52.932;6.674;2023-07-29T06:18:58;17.40;99.90
55213;DHT22;41083;52.932;6.674;2023-07-29T06:21:24;17.40;99.90
55213;DHT22;41083;52.932;6.674;2023-07-29T06:23:50;17.40;99.90
55213;DHT22;41083;52.932;6.674;2023-07-29T06:26:15;17.50;99.90
55213;DHT22;41083;52.932;6.674;2023-07-29T06:28:41;17.40;99.90
55213;DHT22;41083;52.932;6.674;2023-07-29T06:31:06;17.50;99.90
55213;DHT22;41083;52.932;6.674;2023-07-29T06:33:32;17.50;99.90
55213;DHT22;41083;52.932;6.674;2023-07-29T06:35:57;17.70;99.90
55213;DHT22;41083;52.932;6.674;2023-07-29T06:38:23;17.80;99.90
55213;DHT22;41083;52.932;6.674;2023-07-29T06:40:49;18.10;99.90
55213;DHT22;41083;52.932;6.674;2023-07-29T06:43:14;18.10;99.90
55213;DHT22;41083;52.932;6.674;2023-07-29T06:45:40;18.10;99.90
55213;DHT22;41083;52.932;6.674;2023-07-29T06:48:05;18.10;99.90
55213;DHT22;41083;52.932;6.674;2023-07-29T06:50:31;18.10;99.90
55213;DHT22;41083;52.932;6.674;2023-07-29T06:52:56;18.10;99.90
55213;DHT22;41083;52.932;6.674;2023-07-29T06:55:22;18.10;99.90
55213;DHT22;41083;52.932;6.674;2023-07-29T06:57:48;18.10;99.90
55213;DHT22;41083;52.932;6.674;2023-07-29T07:00:14;18.10;99.90
55213;DHT22;41083;52.932;6.674;2023-07-29T07:02:39;18.10;99.90
55213;DHT22;41083;52.932;6.674;2023-07-29T07:05:05;18.20;99.90
55213;DHT22;41083;52.932;6.674;2023-07-29T07:07:31;18.30;99.90
55213;DHT22;41083;52.932;6.674;2023-07-29T07:09:56;18.40;99.90
55213;DHT22;41083;52.932;6.674;2023-07-29T07:12:22;18.30;99.90
55213;DHT22;41083;52.932;6.674;2023-07-29T07:14:47;18.40;99.90
55213;DHT22;41083;52.932;6.674;2023-07-29T07:17:13;18.40;99.90
55213;DHT22;41083;52.932;6.674;2023-07-29T07:19:39;18.40;99.90
55213;DHT22;41083;52.932;6.674;2023-07-29T07:22:05;18.40;99.90
55213;DHT22;41083;52.932;6.674;2023-07-29T07:24:30;18.40;99.90
55213;DHT22;41083;52.932;6.674;2023-07-29T07:26:56;18.40;99.90
55213;DHT22;41083;52.932;6.674;2023-07-29T07:29:22;18.40;99.90
55213;DHT22;41083;52.932;6.674;2023-07-29T07:31:52;18.40;99.90
55213;DHT22;41083;52.932;6.674;2023-07-29T07:34:19;18.40;99.90
55213;DHT22;41083;52.932;6.674;2023-07-29T07:36:45;18.40;99.90
55213;DHT22;41083;52.932;6.674;2023-07-29T07:39:11;18.40;99.90
55213;DHT22;41083;52.932;6.674;2023-07-29T07:41:36;18.50;99.90
55213;DHT22;41083;52.932;6.674;2023-07-29T07:44:02;18.50;99.90
55213;DHT22;41083;52.932;6.674;2023-07-29T07:46:28;18.50;99.90
55213;DHT22;41083;52.932;6.674;2023-07-29T07:48:54;18.60;99.90
55213;DHT22;41083;52.932;6.674;2023-07-29T07:51:19;18.60;99.90
55213;DHT22;41083;52.932;6.674;2023-07-29T07:53:45;18.70;99.90
55213;DHT22;41083;52.932;6.674;2023-07-29T07:56:11;18.80;99.90
55213;DHT22;41083;52.932;6.674;2023-07-29T07:58:38;18.90;99.90
55213;DHT22;41083;52.932;6.674;2023-07-29T08:01:07;19.00;99.90
55213;DHT22;41083;52.932;6.674;2023-07-29T08:03:34;19.10;99.90
55213;DHT22;41083;52.932;6.674;2023-07-29T08:05:59;19.10;99.90
55213;DHT22;41083;52.932;6.674;2023-07-29T08:08:26;19.10;99.90
55213;DHT22;41083;52.932;6.674;2023-07-29T08:10:56;19.10;99.90
55213;DHT22;41083;52.932;6.674;2023-07-29T08:13:23;19.10;99.90
55213;DHT22;41083;52.932;6.674;2023-07-29T08:15:51;19.20;99.90
55213;DHT22;41083;52.932;6.674;2023-07-29T08:18:18;19.20;99.90
55213;DHT22;41083;52.932;6.674;2023-07-29T08:20:57;19.10;99.90
55213;DHT22;41083;52.932;6.674;2023-07-29T08:23:24;19.10;99.90
55213;DHT22;41083;52.932;6.674;2023-07-29T08:25:55;19.20;99.90
55213;DHT22;41083;52.932;6.674;2023-07-29T08:28:22;19.10;99.90
55213;DHT22;41083;52.932;6.674;2023-07-29T08:30:48;19.10;99.90
55213;DHT22;41083;52.932;6.674;2023-07-29T08:33:14;19.20;99.90
55213;DHT22;41083;52.932;6.674;2023-07-29T08:35:40;19.30;99.90
55213;DHT22;41083;52.932;6.674;2023-07-29T08:38:06;19.40;99.90
55213;DHT22;41083;52.932;6.674;2023-07-29T08:40:32;19.40;99.90
55213;DHT22;41083;52.932;6.674;2023-07-29T08:43:04;19.50;99.90
55213;DHT22;41083;52.932;6.674;2023-07-29T08:45:34;19.50;99.90
55213;DHT22;41083;52.932;6.674;2023-07-29T08:48:02;19.50;99.90
55213;DHT22;41083;52.932;6.674;2023-07-29T08:50:33;19.60;99.90
55213;DHT22;41083;52.932;6.674;2023-07-29T08:53:01;19.70;99.90
55213;DHT22;41083;52.932;6.674;2023-07-29T08:55:29;19.70;99.90
55213;DHT22;41083;52.932;6.674;2023-07-29T08:57:57;19.80;99.90
55213;DHT22;41083;52.932;6.674;2023-07-29T09:00:23;19.70;99.90
55213;DHT22;41083;52.932;6.674;2023-07-29T09:02:49;19.70;99.90
55213;DHT22;41083;52.932;6.674;2023-07-29T09:05:14;19.70;99.90
55213;DHT22;41083;52.932;6.674;2023-07-29T09:07:40;19.70;99.90
55213;DHT22;41083;52.932;6.674;2023-07-29T09:10:09;19.70;99.90
55213;DHT22;41083;52.932;6.674;2023-07-29T09:12:36;19.70;99.90
55213;DHT22;41083;52.932;6.674;2023-07-29T09:15:01;19.70;99.90
55213;DHT22;41083;52.932;6.674;2023-07-29T09:17:31;19.80;99.90
55213;DHT22;41083;52.932;6.674;2023-07-29T09:19:57;19.80;99.90
55213;DHT22;41083;52.932;6.674;2023-07-29T09:22:24;19.90;99.90
55213;DHT22;41083;52.932;6.674;2023-07-29T09:24:51;19.90;99.90
55213;DHT22;41083;52.932;6.674;2023-07-29T09:27:24;20.00;99.90
55213;DHT22;41083;52.932;6.674;2023-07-29T09:29:51;20.10;99.90
55213;DHT22;41083;52.932;6.674;2023-07-29T09:32:24;20.20;99.90
55213;DHT22;41083;52.932;6.674;2023-07-29T09:34:50;20.20;99.90
55213;DHT22;41083;52.932;6.674;2023-07-29T09:37:23;20.30;99.90
55213;DHT22;41083;52.932;6.674;2023-07-29T09:39:49;20.40;99.90
55213;DHT22;41083;52.932;6.674;2023-07-29T09:42:19;20.30;99.90
55213;DHT22;41083;52.932;6.674;2023-07-29T09:44:45;20.30;99.90
55213;DHT22;41083;52.932;6.674;2023-07-29T09:47:19;20.30;99.90
55213;DHT22;41083;52.932;6.674;2023-07-29T09:49:46;20.40;99.90
55213;DHT22;41083;52.932;6.674;2023-07-29T09:52:11;20.40;99.90
55213;DHT22;41083;52.932;6.674;2023-07-29T09:54:37;20.40;99.90
55213;DHT22;41083;52.932;6.674;2023-07-29T09:57:03;20.50;99.90
55213;DHT22;41083;52.932;6.674;2023-07-29T09:59:33;20.60;99.90
55213;DHT22;41083;52.932;6.674;2023-07-29T10:01:59;20.60;99.90
55213;DHT22;41083;52.932;6.674;2023-07-29T10:04:26;20.70;99.90
55213;DHT22;41083;52.932;6.674;2023-07-29T10:06:52;20.70;99.90
55213;DHT22;41083;52.932;6.674;2023-07-29T10:09:19;20.70;99.90
55213;DHT22;41083;52.932;6.674;2023-07-29T10:11:45;20.70;99.90
55213;DHT22;41083;52.932;6.674;2023-07-29T10:14:11;20.70;99.90
55213;DHT22;41083;52.932;6.674;2023-07-29T10:16:37;20.60;99.90
55213;DHT22;41083;52.932;6.674;2023-07-29T10:19:04;20.60;99.90
55213;DHT22;41083;52.932;6.674;2023-07-29T10:21:33;20.60;99.90
55213;DHT22;41083;52.932;6.674;2023-07-29T10:24:01;20.70;99.90
55213;DHT22;41083;52.932;6.674;2023-07-29T10:26:28;20.70;99.90
55213;DHT22;41083;52.932;6.674;2023-07-29T10:28:59;20.70;99.90
55213;DHT22;41083;52.932;6.674;2023-07-29T10:31:30;20.70;99.90
55213;DHT22;41083;52.932;6.674;2023-07-29T10:33:57;20.70;99.90
55213;DHT22;41083;52.932;6.674;2023-07-29T10:36:22;20.70;99.90
55213;DHT22;41083;52.932;6.674;2023-07-29T10:38:49;20.70;99.90
55213;DHT22;41083;52.932;6.674;2023-07-29T10:41:15;20.70;99.90
55213;DHT22;41083;52.932;6.674;2023-07-29T10:43:40;20.70;99.90
55213;DHT22;41083;52.932;6.674;2023-07-29T10:48:56;20.60;99.90
55213;DHT22;41083;52.932;6.674;2023-07-29T10:51:26;20.60;99.90
55213;DHT22;41083;52.932;6.674;2023-07-29T10:54:00;20.50;99.90
55213;DHT22;41083;52.932;6.674;2023-07-29T10:56:33;20.50;99.90
55213;DHT22;41083;52.932;6.674;2023-07-29T10:59:22;20.40;99.90
55213;DHT22;41083;52.932;6.674;2023-07-29T11:01:57;20.40;99.90
55213;DHT22;41083;52.932;6.674;2023-07-29T11:04:23;20.40;99.90
55213;DHT22;41083;52.932;6.674;2023-07-29T11:12:34;20.30;99.90
55213;DHT22;41083;52.932;6.674;2023-07-29T11:15:24;20.20;99.90
55213;DHT22;41083;52.932;6.674;2023-07-29T11:20:19;19.50;99.90
55213;DHT22;41083;52.932;6.674;2023-07-29T11:22:45;19.20;99.90
55213;DHT22;41083;52.932;6.674;2023-07-29T11:25:13;19.00;99.90
55213;DHT22;41083;52.932;6.674;2023-07-29T11:27:39;18.80;99.90
55213;DHT22;41083;52.932;6.674;2023-07-29T11:30:06;18.70;99.90
55213;DHT22;41083;52.932;6.674;2023-07-29T11:32:34;18.70;99.90
55213;DHT22;41083;52.932;6.674;2023-07-29T11:35:12;18.60;99.90
55213;DHT22;41083;52.932;6.674;2023-07-29T11:37:42;18.60;99.90
55213;DHT22;41083;52.932;6.674;2023-07-29T11:40:08;18.60;99.90
55213;DHT22;41083;52.932;6.674;2023-07-29T11:42:36;18.80;99.90
55213;DHT22;41083;52.932;6.674;2023-07-29T11:45:03;18.90;99.90
55213;DHT22;41083;52.932;6.674;2023-07-29T11:47:29;19.10;99.90
55213;DHT22;41083;52.932;6.674;2023-07-29T11:49:58;19.10;99.90
55213;DHT22;41083;52.932;6.674;2023-07-29T11:52:24;19.30;99.90
55213;DHT22;41083;52.932;6.674;2023-07-29T11:54:49;19.40;99.90
55213;DHT22;41083;52.932;6.674;2023-07-29T11:57:16;19.50;99.90
55213;DHT22;41083;52.932;6.674;2023-07-29T11:59:44;19.60;99.90
55213;DHT22;41083;52.932;6.674;2023-07-29T12:02:13;19.60;99.90
55213;DHT22;41083;52.932;6.674;2023-07-29T12:04:40;19.80;99.90
55213;DHT22;41083;52.932;6.674;2023-07-29T12:07:06;19.80;99.90
55213;DHT22;41083;52.932;6.674;2023-07-29T12:09:32;19.90;99.90
55213;DHT22;41083;52.932;6.674;2023-07-29T12:11:58;20.00;99.90
55213;DHT22;41083;52.932;6.674;2023-07-29T12:14:29;20.00;99.90
55213;DHT22;41083;52.932;6.674;2023-07-29T12:16:54;20.00;99.90
55213;DHT22;41083;52.932;6.674;2023-07-29T12:19:20;20.00;99.90
55213;DHT22;41083;52.932;6.674;2023-07-29T12:21:48;20.10;99.90
55213;DHT22;41083;52.932;6.674;2023-07-29T12:24:14;20.10;99.90
55213;DHT22;41083;52.932;6.674;2023-07-29T12:26:41;20.10;99.90
55213;DHT22;41083;52.932;6.674;2023-07-29T12:29:14;20.20;99.90
55213;DHT22;41083;52.932;6.674;2023-07-29T12:31:40;20.30;99.90
55213;DHT22;41083;52.932;6.674;2023-07-29T12:34:05;20.30;99.90
55213;DHT22;41083;52.932;6.674;2023-07-29T12:37:02;20.30;99.90
55213;DHT22;41083;52.932;6.674;2023-07-29T12:39:30;20.30;99.90
55213;DHT22;41083;52.932;6.674;2023-07-29T12:41:57;20.30;99.90
55213;DHT22;41083;52.932;6.674;2023-07-29T12:44:24;20.30;99.90
55213;DHT22;41083;52.932;6.674;2023-07-29T12:46:50;20.30;99.90
55213;DHT22;41083;52.932;6.674;2023-07-29T12:49:16;20.40;99.90
55213;DHT22;41083;52.932;6.674;2023-07-29T12:51:42;20.50;99.90
55213;DHT22;41083;52.932;6.674;2023-07-29T12:54:08;20.60;99.90
55213;DHT22;41083;52.932;6.674;2023-07-29T12:56:34;20.60;99.90
55213;DHT22;41083;52.932;6.674;2023-07-29T12:59:01;20.60;99.90
55213;DHT22;41083;52.932;6.674;2023-07-29T13:01:27;20.60;99.90
55213;DHT22;41083;52.932;6.674;2023-07-29T13:03:53;20.50;99.90
55213;DHT22;41083;52.932;6.674;2023-07-29T13:06:19;20.50;99.90
55213;DHT22;41083;52.932;6.674;2023-07-29T13:08:46;20.60;99.90
55213;DHT22;41083;52.932;6.674;2023-07-29T13:11:12;20.60;99.90
55213;DHT22;41083;52.932;6.674;2023-07-29T13:13:38;20.60;99.90
55213;DHT22;41083;52.932;6.674;2023-07-29T13:16:03;20.70;99.90
55213;DHT22;41083;52.932;6.674;2023-07-29T13:18:29;20.70;99.90
55213;DHT22;41083;52.932;6.674;2023-07-29T13:20:55;20.80;99.90
55213;DHT22;41083;52.932;6.674;2023-07-29T13:23:20;20.80;99.90
55213;DHT22;41083;52.932;6.674;2023-07-29T13:25:46;20.80;99.90
55213;DHT22;41083;52.932;6.674;2023-07-29T13:28:12;20.80;99.90
55213;DHT22;41083;52.932;6.674;2023-07-29T13:30:41;20.80;99.90
55213;DHT22;41083;52.932;6.674;2023-07-29T13:33:08;20.80;99.90
55213;DHT22;41083;52.932;6.674;2023-07-29T13:35:33;20.80;99.90
55213;DHT22;41083;52.932;6.674;2023-07-29T13:37:59;20.70;99.90
55213;DHT22;41083;52.932;6.674;2023-07-29T13:40:25;20.70;99.90
55213;DHT22;41083;52.932;6.674;2023-07-29T13:42:51;20.60;99.90
55213;DHT22;41083;52.932;6.674;2023-07-29T13:45:17;20.60;99.90
55213;DHT22;41083;52.932;6.674;2023-07-29T13:47:43;20.60;99.90
55213;DHT22;41083;52.932;6.674;2023-07-29T13:50:09;20.50;99.90
55213;DHT22;41083;52.932;6.674;2023-07-29T13:52:36;20.50;99.90
55213;DHT22;41083;52.932;6.674;2023-07-29T13:55:02;20.50;99.90
55213;DHT22;41083;52.932;6.674;2023-07-29T13:57:28;20.50;99.90
55213;DHT22;41083;52.932;6.674;2023-07-29T13:59:54;20.50;99.90
55213;DHT22;41083;52.932;6.674;2023-07-29T14:02:19;20.50;99.90
55213;DHT22;41083;52.932;6.674;2023-07-29T14:04:45;20.50;99.90
55213;DHT22;41083;52.932;6.674;2023-07-29T14:07:10;20.60;99.90
55213;DHT22;41083;52.932;6.674;2023-07-29T14:09:36;20.50;99.90
55213;DHT22;41083;52.932;6.674;2023-07-29T14:12:02;20.60;99.90
55213;DHT22;41083;52.932;6.674;2023-07-29T14:14:28;20.60;99.90
55213;DHT22;41083;52.932;6.674;2023-07-29T14:16:54;20.80;99.90
55213;DHT22;41083;52.932;6.674;2023-07-29T14:19:20;20.90;99.90
55213;DHT22;41083;52.932;6.674;2023-07-29T14:21:45;21.00;99.90
55213;DHT22;41083;52.932;6.674;2023-07-29T14:24:11;21.00;99.90
55213;DHT22;41083;52.932;6.674;2023-07-29T14:26:36;21.00;99.90
55213;DHT22;41083;52.932;6.674;2023-07-29T14:29:02;21.00;99.90
55213;DHT22;41083;52.932;6.674;2023-07-29T14:31:27;21.00;99.90
55213;DHT22;41083;52.932;6.674;2023-07-29T14:33:53;20.90;99.90
55213;DHT22;41083;52.932;6.674;2023-07-29T14:36:18;20.90;99.90
55213;DHT22;41083;52.932;6.674;2023-07-29T14:38:44;20.80;99.90
55213;DHT22;41083;52.932;6.674;2023-07-29T14:41:10;20.80;99.90
55213;DHT22;41083;52.932;6.674;2023-07-29T14:43:35;20.80;99.90
55213;DHT22;41083;52.932;6.674;2023-07-29T14:46:01;20.80;99.90
55213;DHT22;41083;52.932;6.674;2023-07-29T14:48:27;20.80;99.90
55213;DHT22;41083;52.932;6.674;2023-07-29T14:50:53;20.80;99.90
55213;DHT22;41083;52.932;6.674;2023-07-29T14:53:19;20.80;99.90
55213;DHT22;41083;52.932;6.674;2023-07-29T14:55:44;20.80;99.90
55213;DHT22;41083;52.932;6.674;2023-07-29T14:58:10;20.80;99.90
55213;DHT22;41083;52.932;6.674;2023-07-29T15:00:35;20.70;99.90
55213;DHT22;41083;52.932;6.674;2023-07-29T15:03:01;20.70;99.90
55213;DHT22;41083;52.932;6.674;2023-07-29T15:05:27;20.60;99.90
55213;DHT22;41083;52.932;6.674;2023-07-29T15:07:52;20.50;99.90
55213;DHT22;41083;52.932;6.674;2023-07-29T15:10:18;20.50;99.90
55213;DHT22;41083;52.932;6.674;2023-07-29T15:12:44;20.50;99.90
55213;DHT22;41083;52.932;6.674;2023-07-29T15:15:11;20.50;99.90
55213;DHT22;41083;52.932;6.674;2023-07-29T15:17:37;20.50;99.90
55213;DHT22;41083;52.932;6.674;2023-07-29T15:20:03;20.50;99.90
55213;DHT22;41083;52.932;6.674;2023-07-29T15:22:29;20.50;99.90
55213;DHT22;41083;52.932;6.674;2023-07-29T15:24:57;20.60;99.90
55213;DHT22;41083;52.932;6.674;2023-07-29T15:27:24;20.70;99.90
55213;DHT22;41083;52.932;6.674;2023-07-29T15:29:50;20.70;99.90
55213;DHT22;41083;52.932;6.674;2023-07-29T15:32:15;20.70;99.90
55213;DHT22;41083;52.932;6.674;2023-07-29T15:34:41;20.80;99.90
55213;DHT22;41083;52.932;6.674;2023-07-29T15:37:07;20.80;99.90
55213;DHT22;41083;52.932;6.674;2023-07-29T15:39:32;20.80;99.90
55213;DHT22;41083;52.932;6.674;2023-07-29T15:41:58;20.70;99.90